Chicago O'Hare International, Illinois
Current Conditions -  °F | °C
As of 2:51 AM on Friday 28 Nov 2014 (Local Time) from KORD Reporting Station
Broken Clouds Broken Clouds  
Wind Chill: 12°   Ceiling: 10000
Heat Index: 19°   Visibility: 10mi
Dew Point: 11°   Wind: 5mph
Humidity: 71%   Direction: 210°SSW
Pressure: 30.36"   Gusts: NA
Location:  41.98°N, 87.9°W
Report Text: KORD 280851Z 21004KT 10SM BKN100 M07/M12 A3036 RMK AO2 SLP292 T10721117 56001
Loading
Personal Weather Stations






























Interactive Weather Map New forecast layout! Learn more

10-Day Weather Forecast

Advertisements
Track Severe Weather on mobile